sensor_id;sensor_type;location;lat;lon;timestamp;temperature;humidity
26035;DHT22;13809;48.632;11.576;2023-01-28T00:02:50;4.80;42.60
26035;DHT22;13809;48.632;11.576;2023-01-28T00:07:53;4.80;42.60
26035;DHT22;13809;48.632;11.576;2023-01-28T00:12:56;4.80;42.60
26035;DHT22;13809;48.632;11.576;2023-01-28T00:18:01;4.80;42.60
26035;DHT22;13809;48.632;11.576;2023-01-28T00:23:04;4.70;42.50
26035;DHT22;13809;48.632;11.576;2023-01-28T00:28:08;4.80;42.60
26035;DHT22;13809;48.632;11.576;2023-01-28T00:33:15;4.70;42.50
26035;DHT22;13809;48.632;11.576;2023-01-28T00:38:18;4.80;42.60
26035;DHT22;13809;48.632;11.576;2023-01-28T00:43:21;4.80;42.60
26035;DHT22;13809;48.632;11.576;2023-01-28T00:48:26;4.80;42.60
26035;DHT22;13809;48.632;11.576;2023-01-28T00:53:29;4.80;42.60
26035;DHT22;13809;48.632;11.576;2023-01-28T00:58:33;4.80;42.60
26035;DHT22;13809;48.632;11.576;2023-01-28T01:03:38;4.80;42.60
26035;DHT22;13809;48.632;11.576;2023-01-28T01:08:41;4.80;42.60
26035;DHT22;13809;48.632;11.576;2023-01-28T01:13:52;4.80;42.60
26035;DHT22;13809;48.632;11.576;2023-01-28T01:18:58;4.80;42.60
26035;DHT22;13809;48.632;11.576;2023-01-28T01:24:02;4.80;42.60
26035;DHT22;13809;48.632;11.576;2023-01-28T01:29:05;4.80;42.60
26035;DHT22;13809;48.632;11.576;2023-01-28T01:34:12;4.80;42.60
26035;DHT22;13809;48.632;11.576;2023-01-28T01:39:15;4.70;42.50
26035;DHT22;13809;48.632;11.576;2023-01-28T01:44:56;4.70;42.50
26035;DHT22;13809;48.632;11.576;2023-01-28T01:50:05;4.70;42.50
26035;DHT22;13809;48.632;11.576;2023-01-28T01:55:13;4.70;42.50
26035;DHT22;13809;48.632;11.576;2023-01-28T02:00:19;4.70;42.50
26035;DHT22;13809;48.632;11.576;2023-01-28T02:05:23;4.70;42.50
26035;DHT22;13809;48.632;11.576;2023-01-28T02:10:26;4.60;42.40
26035;DHT22;13809;48.632;11.576;2023-01-28T02:15:30;4.60;42.40
26035;DHT22;13809;48.632;11.576;2023-01-28T02:20:46;4.60;42.40
26035;DHT22;13809;48.632;11.576;2023-01-28T02:31:41;4.60;42.40
26035;DHT22;13809;48.632;11.576;2023-01-28T02:36:48;4.60;42.40
26035;DHT22;13809;48.632;11.576;2023-01-28T02:41:58;4.70;42.50
26035;DHT22;13809;48.632;11.576;2023-01-28T02:47:09;4.60;42.40
26035;DHT22;13809;48.632;11.576;2023-01-28T02:52:39;4.70;42.50
26035;DHT22;13809;48.632;11.576;2023-01-28T02:58:07;4.70;42.50
26035;DHT22;13809;48.632;11.576;2023-01-28T03:03:15;4.60;42.40
26035;DHT22;13809;48.632;11.576;2023-01-28T03:08:20;4.70;42.50
26035;DHT22;13809;48.632;11.576;2023-01-28T03:13:41;4.70;42.50
26035;DHT22;13809;48.632;11.576;2023-01-28T03:19:05;4.60;42.40
26035;DHT22;13809;48.632;11.576;2023-01-28T03:24:29;4.70;42.50
26035;DHT22;13809;48.632;11.576;2023-01-28T03:29:53;4.70;42.50
26035;DHT22;13809;48.632;11.576;2023-01-28T03:35:21;4.70;42.50
26035;DHT22;13809;48.632;11.576;2023-01-28T03:40:48;4.70;42.60
26035;DHT22;13809;48.632;11.576;2023-01-28T03:45:52;4.60;42.50
26035;DHT22;13809;48.632;11.576;2023-01-28T03:50:57;4.70;42.60
26035;DHT22;13809;48.632;11.576;2023-01-28T03:56:01;4.70;42.60
26035;DHT22;13809;48.632;11.576;2023-01-28T04:01:04;4.70;42.60
26035;DHT22;13809;48.632;11.576;2023-01-28T04:06:09;4.70;42.60
26035;DHT22;13809;48.632;11.576;2023-01-28T04:11:12;4.70;42.50
26035;DHT22;13809;48.632;11.576;2023-01-28T04:16:20;4.70;42.50
26035;DHT22;13809;48.632;11.576;2023-01-28T04:21:24;4.70;42.50
26035;DHT22;13809;48.632;11.576;2023-01-28T04:26:28;4.70;42.60
26035;DHT22;13809;48.632;11.576;2023-01-28T04:31:31;4.70;42.50
26035;DHT22;13809;48.632;11.576;2023-01-28T04:36:36;4.70;42.60
26035;DHT22;13809;48.632;11.576;2023-01-28T04:41:39;4.70;43.50
26035;DHT22;13809;48.632;11.576;2023-01-28T04:46:42;4.70;42.70
26035;DHT22;13809;48.632;11.576;2023-01-28T04:51:46;4.70;42.60
26035;DHT22;13809;48.632;11.576;2023-01-28T04:56:49;4.70;42.50
26035;DHT22;13809;48.632;11.576;2023-01-28T05:01:53;4.60;42.50
26035;DHT22;13809;48.632;11.576;2023-01-28T05:06:57;4.60;42.60
26035;DHT22;13809;48.632;11.576;2023-01-28T05:12:00;4.60;42.60
26035;DHT22;13809;48.632;11.576;2023-01-28T05:17:03;4.60;42.60
26035;DHT22;13809;48.632;11.576;2023-01-28T05:22:08;4.60;42.80
26035;DHT22;13809;48.632;11.576;2023-01-28T05:27:11;4.60;42.90
26035;DHT22;13809;48.632;11.576;2023-01-28T05:32:14;4.60;42.90
26035;DHT22;13809;48.632;11.576;2023-01-28T05:37:19;4.60;42.80
26035;DHT22;13809;48.632;11.576;2023-01-28T05:42:22;4.60;42.70
26035;DHT22;13809;48.632;11.576;2023-01-28T05:47:25;4.60;42.80
26035;DHT22;13809;48.632;11.576;2023-01-28T05:52:30;4.60;42.90
26035;DHT22;13809;48.632;11.576;2023-01-28T05:57:33;4.60;42.90
26035;DHT22;13809;48.632;11.576;2023-01-28T06:02:36;4.70;43.10
26035;DHT22;13809;48.632;11.576;2023-01-28T06:07:43;4.70;43.00
26035;DHT22;13809;48.632;11.576;2023-01-28T06:12:46;4.70;43.10
26035;DHT22;13809;48.632;11.576;2023-01-28T06:17:50;4.70;43.00
26035;DHT22;13809;48.632;11.576;2023-01-28T06:22:54;4.70;42.90
26035;DHT22;13809;48.632;11.576;2023-01-28T06:27:57;4.80;42.90
26035;DHT22;13809;48.632;11.576;2023-01-28T06:33:01;4.80;42.90
26035;DHT22;13809;48.632;11.576;2023-01-28T06:38:05;4.70;42.80
26035;DHT22;13809;48.632;11.576;2023-01-28T06:43:09;4.80;42.90
26035;DHT22;13809;48.632;11.576;2023-01-28T06:48:12;4.80;42.90
26035;DHT22;13809;48.632;11.576;2023-01-28T06:53:17;4.80;42.80
26035;DHT22;13809;48.632;11.576;2023-01-28T06:58:22;4.70;42.60
26035;DHT22;13809;48.632;11.576;2023-01-28T07:03:25;4.70;42.50
26035;DHT22;13809;48.632;11.576;2023-01-28T07:08:29;4.70;42.70
26035;DHT22;13809;48.632;11.576;2023-01-28T07:13:33;4.70;42.70
26035;DHT22;13809;48.632;11.576;2023-01-28T07:18:37;4.70;42.70
26035;DHT22;13809;48.632;11.576;2023-01-28T07:23:41;4.70;43.10
26035;DHT22;13809;48.632;11.576;2023-01-28T07:28:45;4.70;42.90
26035;DHT22;13809;48.632;11.576;2023-01-28T07:33:48;4.80;43.00
26035;DHT22;13809;48.632;11.576;2023-01-28T07:38:54;4.70;43.00
26035;DHT22;13809;48.632;11.576;2023-01-28T07:43:57;4.80;43.10
26035;DHT22;13809;48.632;11.576;2023-01-28T07:49:00;4.80;43.00
26035;DHT22;13809;48.632;11.576;2023-01-28T07:54:05;4.80;43.00
26035;DHT22;13809;48.632;11.576;2023-01-28T07:59:08;4.80;42.90
26035;DHT22;13809;48.632;11.576;2023-01-28T08:04:11;4.80;43.00
26035;DHT22;13809;48.632;11.576;2023-01-28T08:09:16;4.80;42.70
26035;DHT22;13809;48.632;11.576;2023-01-28T08:14:19;4.80;42.70
26035;DHT22;13809;48.632;11.576;2023-01-28T08:19:22;4.80;42.70
26035;DHT22;13809;48.632;11.576;2023-01-28T08:24:29;4.80;42.70
26035;DHT22;13809;48.632;11.576;2023-01-28T08:29:32;4.80;42.70
26035;DHT22;13809;48.632;11.576;2023-01-28T08:34:35;4.80;42.90
26035;DHT22;13809;48.632;11.576;2023-01-28T08:39:40;4.80;42.90
26035;DHT22;13809;48.632;11.576;2023-01-28T08:44:46;4.80;42.90
26035;DHT22;13809;48.632;11.576;2023-01-28T08:49:49;4.80;42.90
26035;DHT22;13809;48.632;11.576;2023-01-28T08:54:54;4.80;42.90
26035;DHT22;13809;48.632;11.576;2023-01-28T08:59:57;4.80;42.90
26035;DHT22;13809;48.632;11.576;2023-01-28T09:05:00;4.80;42.90
26035;DHT22;13809;48.632;11.576;2023-01-28T09:10:06;4.80;42.90
26035;DHT22;13809;48.632;11.576;2023-01-28T09:15:09;4.80;42.90
26035;DHT22;13809;48.632;11.576;2023-01-28T09:20:13;4.90;42.80
26035;DHT22;13809;48.632;11.576;2023-01-28T09:25:18;4.90;42.80
26035;DHT22;13809;48.632;11.576;2023-01-28T09:30:21;4.90;42.90
26035;DHT22;13809;48.632;11.576;2023-01-28T09:35:25;4.90;43.00
26035;DHT22;13809;48.632;11.576;2023-01-28T09:40:33;4.90;43.10
26035;DHT22;13809;48.632;11.576;2023-01-28T09:45:40;5.00;43.10
26035;DHT22;13809;48.632;11.576;2023-01-28T09:50:46;5.00;43.70
26035;DHT22;13809;48.632;11.576;2023-01-28T09:55:54;5.10;43.40
26035;DHT22;13809;48.632;11.576;2023-01-28T10:01:02;5.00;42.90
26035;DHT22;13809;48.632;11.576;2023-01-28T10:06:22;5.10;42.80
26035;DHT22;13809;48.632;11.576;2023-01-28T10:11:42;5.10;42.90
26035;DHT22;13809;48.632;11.576;2023-01-28T10:16:50;5.10;42.80
26035;DHT22;13809;48.632;11.576;2023-01-28T10:21:57;5.20;42.90
26035;DHT22;13809;48.632;11.576;2023-01-28T10:27:09;5.20;42.90
26035;DHT22;13809;48.632;11.576;2023-01-28T10:32:20;5.20;42.90
26035;DHT22;13809;48.632;11.576;2023-01-28T10:37:24;5.30;43.00
26035;DHT22;13809;48.632;11.576;2023-01-28T10:42:31;5.30;43.00
26035;DHT22;13809;48.632;11.576;2023-01-28T10:47:40;5.30;43.00
26035;DHT22;13809;48.632;11.576;2023-01-28T10:52:53;5.30;43.00
26035;DHT22;13809;48.632;11.576;2023-01-28T10:57:58;5.30;43.00
26035;DHT22;13809;48.632;11.576;2023-01-28T11:03:02;5.30;43.00
26035;DHT22;13809;48.632;11.576;2023-01-28T11:08:12;5.30;43.00
26035;DHT22;13809;48.632;11.576;2023-01-28T11:13:19;5.30;42.80
26035;DHT22;13809;48.632;11.576;2023-01-28T11:18:25;5.30;42.60
26035;DHT22;13809;48.632;11.576;2023-01-28T11:23:31;5.30;42.60
26035;DHT22;13809;48.632;11.576;2023-01-28T11:28:39;5.30;42.60
26035;DHT22;13809;48.632;11.576;2023-01-28T11:33:46;5.30;42.60
26035;DHT22;13809;48.632;11.576;2023-01-28T11:38:53;5.30;42.80
26035;DHT22;13809;48.632;11.576;2023-01-28T11:43:59;5.30;43.00
26035;DHT22;13809;48.632;11.576;2023-01-28T11:49:09;5.30;43.00
26035;DHT22;13809;48.632;11.576;2023-01-28T11:54:28;5.30;43.00
26035;DHT22;13809;48.632;11.576;2023-01-28T11:59:51;5.30;43.10
26035;DHT22;13809;48.632;11.576;2023-01-28T12:05:07;5.30;44.00
26035;DHT22;13809;48.632;11.576;2023-01-28T12:10:18;5.30;43.30
26035;DHT22;13809;48.632;11.576;2023-01-28T12:21:10;5.30;43.50
26035;DHT22;13809;48.632;11.576;2023-01-28T12:26:22;5.30;43.30
26035;DHT22;13809;48.632;11.576;2023-01-28T12:31:53;5.30;43.40
26035;DHT22;13809;48.632;11.576;2023-01-28T12:37:02;5.40;43.50
26035;DHT22;13809;48.632;11.576;2023-01-28T12:42:14;5.40;43.80
26035;DHT22;13809;48.632;11.576;2023-01-28T12:47:25;5.40;43.70
26035;DHT22;13809;48.632;11.576;2023-01-28T12:52:35;5.40;43.50
26035;DHT22;13809;48.632;11.576;2023-01-28T12:57:41;5.50;43.40
26035;DHT22;13809;48.632;11.576;2023-01-28T13:02:51;5.50;43.40
26035;DHT22;13809;48.632;11.576;2023-01-28T13:08:01;5.60;43.50
26035;DHT22;13809;48.632;11.576;2023-01-28T13:13:05;5.60;43.30
26035;DHT22;13809;48.632;11.576;2023-01-28T13:18:31;5.70;43.30
26035;DHT22;13809;48.632;11.576;2023-01-28T13:23:39;5.70;43.30
26035;DHT22;13809;48.632;11.576;2023-01-28T13:28:42;5.80;43.40
26035;DHT22;13809;48.632;11.576;2023-01-28T13:33:59;5.80;43.40
26035;DHT22;13809;48.632;11.576;2023-01-28T13:39:05;5.80;43.40
26035;DHT22;13809;48.632;11.576;2023-01-28T13:44:20;5.90;43.50
26035;DHT22;13809;48.632;11.576;2023-01-28T13:49:33;5.90;43.50
26035;DHT22;13809;48.632;11.576;2023-01-28T13:54:42;5.90;43.50
26035;DHT22;13809;48.632;11.576;2023-01-28T13:59:54;6.00;43.50
26035;DHT22;13809;48.632;11.576;2023-01-28T14:05:33;6.00;43.40
26035;DHT22;13809;48.632;11.576;2023-01-28T14:10:54;6.00;43.00
26035;DHT22;13809;48.632;11.576;2023-01-28T14:16:13;6.00;42.90
26035;DHT22;13809;48.632;11.576;2023-01-28T14:21:27;6.00;43.00
26035;DHT22;13809;48.632;11.576;2023-01-28T14:26:48;6.00;43.00
26035;DHT22;13809;48.632;11.576;2023-01-28T14:31:54;6.00;43.00
26035;DHT22;13809;48.632;11.576;2023-01-28T14:37:01;6.00;43.00
26035;DHT22;13809;48.632;11.576;2023-01-28T14:42:13;6.00;42.90
26035;DHT22;13809;48.632;11.576;2023-01-28T14:47:36;6.00;43.00
26035;DHT22;13809;48.632;11.576;2023-01-28T14:53:06;5.90;42.90
26035;DHT22;13809;48.632;11.576;2023-01-28T14:58:15;5.90;43.00
26035;DHT22;13809;48.632;11.576;2023-01-28T15:03:20;6.00;43.20
26035;DHT22;13809;48.632;11.576;2023-01-28T15:08:27;6.00;43.30
26035;DHT22;13809;48.632;11.576;2023-01-28T15:13:37;6.00;43.10
26035;DHT22;13809;48.632;11.576;2023-01-28T15:18:42;6.00;43.00
26035;DHT22;13809;48.632;11.576;2023-01-28T15:23:49;6.00;43.00
26035;DHT22;13809;48.632;11.576;2023-01-28T15:28:55;6.00;43.00
26035;DHT22;13809;48.632;11.576;2023-01-28T15:33:59;6.00;43.20
26035;DHT22;13809;48.632;11.576;2023-01-28T15:39:11;6.00;43.20
26035;DHT22;13809;48.632;11.576;2023-01-28T15:44:17;6.00;43.10
26035;DHT22;13809;48.632;11.576;2023-01-28T15:49:22;6.00;43.10
26035;DHT22;13809;48.632;11.576;2023-01-28T15:54:30;6.00;43.20
26035;DHT22;13809;48.632;11.576;2023-01-28T15:59:33;5.90;43.10
26035;DHT22;13809;48.632;11.576;2023-01-28T16:04:36;5.90;43.10
26035;DHT22;13809;48.632;11.576;2023-01-28T16:09:41;5.90;43.10
26035;DHT22;13809;48.632;11.576;2023-01-28T16:14:45;5.90;43.20
26035;DHT22;13809;48.632;11.576;2023-01-28T16:19:56;5.80;43.40
26035;DHT22;13809;48.632;11.576;2023-01-28T16:25:02;5.80;43.40
26035;DHT22;13809;48.632;11.576;2023-01-28T16:30:06;5.90;43.50
26035;DHT22;13809;48.632;11.576;2023-01-28T16:35:12;5.80;43.40
26035;DHT22;13809;48.632;11.576;2023-01-28T16:40:19;5.80;43.40
26035;DHT22;13809;48.632;11.576;2023-01-28T16:45:24;5.80;43.40
26035;DHT22;13809;48.632;11.576;2023-01-28T16:50:27;5.80;43.40
26035;DHT22;13809;48.632;11.576;2023-01-28T16:55:32;5.80;43.40
26035;DHT22;13809;48.632;11.576;2023-01-28T17:00:35;5.70;43.30
26035;DHT22;13809;48.632;11.576;2023-01-28T17:05:38;5.70;43.30
26035;DHT22;13809;48.632;11.576;2023-01-28T17:10:43;5.70;43.30
26035;DHT22;13809;48.632;11.576;2023-01-28T17:15:46;5.60;43.20
26035;DHT22;13809;48.632;11.576;2023-01-28T17:20:49;5.50;43.10
26035;DHT22;13809;48.632;11.576;2023-01-28T17:25:54;5.50;43.20
26035;DHT22;13809;48.632;11.576;2023-01-28T17:30:57;5.50;43.60
26035;DHT22;13809;48.632;11.576;2023-01-28T17:36:00;5.40;43.40
26035;DHT22;13809;48.632;11.576;2023-01-28T17:41:06;5.40;43.60
26035;DHT22;13809;48.632;11.576;2023-01-28T17:46:11;5.40;43.80
26035;DHT22;13809;48.632;11.576;2023-01-28T17:51:14;5.40;43.70
26035;DHT22;13809;48.632;11.576;2023-01-28T17:56:22;5.40;43.80
26035;DHT22;13809;48.632;11.576;2023-01-28T18:01:26;5.30;43.80
26035;DHT22;13809;48.632;11.576;2023-01-28T18:06:29;5.30;43.60
26035;DHT22;13809;48.632;11.576;2023-01-28T18:11:34;5.30;43.80
26035;DHT22;13809;48.632;11.576;2023-01-28T18:16:38;5.30;43.90
26035;DHT22;13809;48.632;11.576;2023-01-28T18:21:41;5.40;44.00
26035;DHT22;13809;48.632;11.576;2023-01-28T18:26:56;5.40;44.10
26035;DHT22;13809;48.632;11.576;2023-01-28T18:32:00;5.40;44.30
26035;DHT22;13809;48.632;11.576;2023-01-28T18:37:04;5.50;44.20
26035;DHT22;13809;48.632;11.576;2023-01-28T18:42:10;5.50;44.20
26035;DHT22;13809;48.632;11.576;2023-01-28T18:47:14;5.60;44.30
26035;DHT22;13809;48.632;11.576;2023-01-28T18:52:18;5.60;44.20
26035;DHT22;13809;48.632;11.576;2023-01-28T18:57:22;5.70;44.30
26035;DHT22;13809;48.632;11.576;2023-01-28T19:02:26;5.70;44.30
26035;DHT22;13809;48.632;11.576;2023-01-28T19:07:29;5.80;44.30
26035;DHT22;13809;48.632;11.576;2023-01-28T19:12:34;5.80;44.30
26035;DHT22;13809;48.632;11.576;2023-01-28T19:17:37;5.80;44.10
26035;DHT22;13809;48.632;11.576;2023-01-28T19:22:40;5.80;44.00
26035;DHT22;13809;48.632;11.576;2023-01-28T19:27:45;5.80;43.90
26035;DHT22;13809;48.632;11.576;2023-01-28T19:32:48;5.80;43.80
26035;DHT22;13809;48.632;11.576;2023-01-28T19:37:51;5.80;43.90
26035;DHT22;13809;48.632;11.576;2023-01-28T19:42:56;5.70;43.80
26035;DHT22;13809;48.632;11.576;2023-01-28T19:47:59;5.80;44.00
26035;DHT22;13809;48.632;11.576;2023-01-28T19:53:02;5.70;44.00
26035;DHT22;13809;48.632;11.576;2023-01-28T19:58:07;5.70;44.10
26035;DHT22;13809;48.632;11.576;2023-01-28T20:03:10;5.80;44.30
26035;DHT22;13809;48.632;11.576;2023-01-28T20:08:13;5.80;44.30
26035;DHT22;13809;48.632;11.576;2023-01-28T20:13:18;5.80;44.20
26035;DHT22;13809;48.632;11.576;2023-01-28T20:18:21;5.80;44.10
26035;DHT22;13809;48.632;11.576;2023-01-28T20:23:35;5.80;43.90
26035;DHT22;13809;48.632;11.576;2023-01-28T20:28:39;5.80;44.40
26035;DHT22;13809;48.632;11.576;2023-01-28T20:33:42;5.80;44.40
26035;DHT22;13809;48.632;11.576;2023-01-28T20:38:46;5.80;44.10
26035;DHT22;13809;48.632;11.576;2023-01-28T20:43:52;5.80;44.20
26035;DHT22;13809;48.632;11.576;2023-01-28T20:48:57;5.80;44.30
26035;DHT22;13809;48.632;11.576;2023-01-28T20:54:01;5.80;45.00
26035;DHT22;13809;48.632;11.576;2023-01-28T20:59:06;5.90;44.20
26035;DHT22;13809;48.632;11.576;2023-01-28T21:04:09;5.90;44.40
26035;DHT22;13809;48.632;11.576;2023-01-28T21:09:12;5.90;44.30
26035;DHT22;13809;48.632;11.576;2023-01-28T21:14:17;5.90;44.20
26035;DHT22;13809;48.632;11.576;2023-01-28T21:19:20;6.00;44.40
26035;DHT22;13809;48.632;11.576;2023-01-28T21:24:23;6.00;44.20
26035;DHT22;13809;48.632;11.576;2023-01-28T21:29:28;6.00;44.10
26035;DHT22;13809;48.632;11.576;2023-01-28T21:34:31;6.00;44.00
26035;DHT22;13809;48.632;11.576;2023-01-28T21:39:34;6.00;44.10
26035;DHT22;13809;48.632;11.576;2023-01-28T21:44:39;6.10;44.10
26035;DHT22;13809;48.632;11.576;2023-01-28T21:49:42;6.10;43.60
26035;DHT22;13809;48.632;11.576;2023-01-28T21:54:45;6.10;43.60
26035;DHT22;13809;48.632;11.576;2023-01-28T21:59:49;6.10;43.60
26035;DHT22;13809;48.632;11.576;2023-01-28T22:04:53;6.00;43.50
26035;DHT22;13809;48.632;11.576;2023-01-28T22:09:56;6.00;43.60
26035;DHT22;13809;48.632;11.576;2023-01-28T22:15:00;6.00;43.50
26035;DHT22;13809;48.632;11.576;2023-01-28T22:20:05;5.90;43.10
26035;DHT22;13809;48.632;11.576;2023-01-28T22:25:09;5.90;43.10
26035;DHT22;13809;48.632;11.576;2023-01-28T22:30:14;5.80;43.10
26035;DHT22;13809;48.632;11.576;2023-01-28T22:35:17;5.80;43.20
26035;DHT22;13809;48.632;11.576;2023-01-28T22:40:20;5.80;43.40
26035;DHT22;13809;48.632;11.576;2023-01-28T22:45:25;5.80;43.40
26035;DHT22;13809;48.632;11.576;2023-01-28T22:50:28;5.80;43.40
26035;DHT22;13809;48.632;11.576;2023-01-28T22:55:31;5.80;43.40
26035;DHT22;13809;48.632;11.576;2023-01-28T23:00:36;5.80;43.40
26035;DHT22;13809;48.632;11.576;2023-01-28T23:05:39;5.80;43.30
26035;DHT22;13809;48.632;11.576;2023-01-28T23:10:46;5.80;43.40
26035;DHT22;13809;48.632;11.576;2023-01-28T23:15:52;5.80;43.30
26035;DHT22;13809;48.632;11.576;2023-01-28T23:21:16;5.80;43.20
26035;DHT22;13809;48.632;11.576;2023-01-28T23:26:37;5.80;43.10
26035;DHT22;13809;48.632;11.576;2023-01-28T23:31:42;5.80;43.10
26035;DHT22;13809;48.632;11.576;2023-01-28T23:36:47;5.80;42.90
26035;DHT22;13809;48.632;11.576;2023-01-28T23:41:51;5.70;42.90
26035;DHT22;13809;48.632;11.576;2023-01-28T23:46:55;5.70;42.60
26035;DHT22;13809;48.632;11.576;2023-01-28T23:51:59;5.60;42.60
26035;DHT22;13809;48.632;11.576;2023-01-28T23:57:02;5.50;42.70
